Terminal Aerodrome Forecast
Issued by NWS Cleveland, OH

Home | Current Version | Previous Version | Graphics & Text | Print | Product List | Glossary On
Versions: 1 2 3 4 5 6 7 8 9 10 11 12 13 14 15 16 17 18 19 20 21 22 23 24
000
FTUS41 KCLE 150200 AAA
TAFTOL
TAF AMD
KTOL 150213Z 1502/1524 32007KT 6SM -RA BKN006 OVC015
      TEMPO 1503/1505 2SM -RA BR OVC006
     FM150500 35012G20KT 1 1/2SM -SN BR OVC006
     FM150900 33015G25KT 3SM -SN BR SCT006 OVC015
     FM151100 31015G25KT P6SM BKN015 OVC025
     FM151400 31015G25KT P6SM BKN025 OVC035
     FM151600 31015G25KT P6SM BKN035=

USA.gov is the U.S. government's official web portal to all federal, state and local government web resources and services.